Poolville, Texas
Current Conditions -  °F | °C
As of 12:15 AM on Wednesday 28 Jan 2015 (Local Time) from KXBP Reporting Station
Clear Clear  
Wind Chill: 56°   Ceiling: Unl
Heat Index: 56°   Visibility: 10mi
Dew Point: 42°   Wind: 5mph
Humidity: 59%   Direction: 210°SSW
Pressure: 30.12"   Gusts: NA
Location:  32.97°N, 97.86°W
Report Text: KXBP 280615Z AUTO 21004KT 10SM CLR 13/05 A3012 RMK AO2 T01330054
Loading
Personal Weather Stations






























Interactive Weather Map New forecast layout! Learn more

10-Day Weather Forecast

Advertisements
Track Severe Weather on mobile